sensor_id;sensor_type;location;lat;lon;timestamp;P1;durP1;ratioP1;P2;durP2;ratioP2
54005;SDS011;39919;38.160;-122.260;2023-02-05T00:02:25;3.92;;;2.70;;
54005;SDS011;39919;38.160;-122.260;2023-02-05T00:04:54;3.38;;;3.13;;
54005;SDS011;39919;38.160;-122.260;2023-02-05T00:07:23;2.55;;;2.35;;
54005;SDS011;39919;38.160;-122.260;2023-02-05T00:09:53;4.05;;;3.30;;
54005;SDS011;39919;38.160;-122.260;2023-02-05T00:12:26;5.63;;;3.78;;
54005;SDS011;39919;38.160;-122.260;2023-02-05T00:14:59;3.10;;;2.40;;
54005;SDS011;39919;38.160;-122.260;2023-02-05T00:17:29;4.63;;;3.50;;
54005;SDS011;39919;38.160;-122.260;2023-02-05T00:19:58;3.15;;;2.70;;
54005;SDS011;39919;38.160;-122.260;2023-02-05T00:22:27;3.83;;;2.72;;
54005;SDS011;39919;38.160;-122.260;2023-02-05T00:24:56;2.97;;;2.13;;
54005;SDS011;39919;38.160;-122.260;2023-02-05T00:27:27;2.25;;;1.70;;
54005;SDS011;39919;38.160;-122.260;2023-02-05T00:29:57;8.05;;;2.15;;
54005;SDS011;39919;38.160;-122.260;2023-02-05T00:32:26;3.17;;;2.10;;
54005;SDS011;39919;38.160;-122.260;2023-02-05T00:34:58;3.75;;;1.45;;
54005;SDS011;39919;38.160;-122.260;2023-02-05T00:37:27;4.45;;;1.60;;
54005;SDS011;39919;38.160;-122.260;2023-02-05T00:39:56;1.00;;;0.98;;
54005;SDS011;39919;38.160;-122.260;2023-02-05T00:42:28;0.70;;;0.70;;
54005;SDS011;39919;38.160;-122.260;2023-02-05T00:44:57;2.83;;;0.85;;
54005;SDS011;39919;38.160;-122.260;2023-02-05T00:47:29;1.85;;;1.15;;
54005;SDS011;39919;38.160;-122.260;2023-02-05T00:49:59;2.28;;;1.58;;
54005;SDS011;39919;38.160;-122.260;2023-02-05T00:52:28;3.38;;;1.27;;
54005;SDS011;39919;38.160;-122.260;2023-02-05T00:54:57;1.80;;;1.50;;
54005;SDS011;39919;38.160;-122.260;2023-02-05T00:57:29;6.78;;;2.70;;
54005;SDS011;39919;38.160;-122.260;2023-02-05T01:00:01;3.17;;;2.92;;
54005;SDS011;39919;38.160;-122.260;2023-02-05T01:02:32;5.25;;;2.80;;
54005;SDS011;39919;38.160;-122.260;2023-02-05T01:05:01;4.32;;;3.92;;
54005;SDS011;39919;38.160;-122.260;2023-02-05T01:07:33;3.55;;;3.25;;
54005;SDS011;39919;38.160;-122.260;2023-02-05T01:10:02;2.75;;;2.50;;
54005;SDS011;39919;38.160;-122.260;2023-02-05T01:12:35;4.50;;;3.45;;
54005;SDS011;39919;38.160;-122.260;2023-02-05T01:15:07;2.65;;;2.22;;
54005;SDS011;39919;38.160;-122.260;2023-02-05T01:17:38;2.88;;;2.25;;
54005;SDS011;39919;38.160;-122.260;2023-02-05T01:20:08;2.10;;;1.90;;
54005;SDS011;39919;38.160;-122.260;2023-02-05T01:22:41;3.58;;;2.30;;
54005;SDS011;39919;38.160;-122.260;2023-02-05T01:25:12;2.30;;;1.92;;
54005;SDS011;39919;38.160;-122.260;2023-02-05T01:27:56;3.22;;;1.70;;
54005;SDS011;39919;38.160;-122.260;2023-02-05T01:30:28;1.33;;;1.05;;
54005;SDS011;39919;38.160;-122.260;2023-02-05T01:33:02;4.95;;;0.80;;
54005;SDS011;39919;38.160;-122.260;2023-02-05T01:35:31;2.28;;;0.50;;
54005;SDS011;39919;38.160;-122.260;2023-02-05T01:38:03;1.65;;;0.40;;
54005;SDS011;39919;38.160;-122.260;2023-02-05T01:40:37;4.93;;;0.40;;
54005;SDS011;39919;38.160;-122.260;2023-02-05T01:43:12;0.20;;;0.10;;
54005;SDS011;39919;38.160;-122.260;2023-02-05T01:48:34;0.70;;;0.10;;
54005;SDS011;39919;38.160;-122.260;2023-02-05T01:51:14;1.05;;;0.10;;
54005;SDS011;39919;38.160;-122.260;2023-02-05T01:53:55;0.30;;;0.00;;
54005;SDS011;39919;38.160;-122.260;2023-02-05T01:56:25;0.00;;;0.00;;
54005;SDS011;39919;38.160;-122.260;2023-02-05T01:58:59;3.30;;;0.03;;
54005;SDS011;39919;38.160;-122.260;2023-02-05T02:01:38;1.08;;;0.00;;
54005;SDS011;39919;38.160;-122.260;2023-02-05T02:04:20;0.50;;;0.00;;
54005;SDS011;39919;38.160;-122.260;2023-02-05T02:06:59;1.10;;;0.10;;
54005;SDS011;39919;38.160;-122.260;2023-02-05T02:09:29;0.52;;;0.00;;
54005;SDS011;39919;38.160;-122.260;2023-02-05T02:11:59;1.58;;;0.00;;
54005;SDS011;39919;38.160;-122.260;2023-02-05T02:14:32;1.52;;;0.10;;
54005;SDS011;39919;38.160;-122.260;2023-02-05T02:17:06;1.20;;;0.08;;
54005;SDS011;39919;38.160;-122.260;2023-02-05T02:19:37;2.20;;;0.13;;
54005;SDS011;39919;38.160;-122.260;2023-02-05T02:22:32;0.73;;;0.00;;
54005;SDS011;39919;38.160;-122.260;2023-02-05T02:25:26;1.85;;;0.20;;
54005;SDS011;39919;38.160;-122.260;2023-02-05T02:28:24;0.43;;;0.00;;
54005;SDS011;39919;38.160;-122.260;2023-02-05T02:31:05;0.65;;;0.00;;
54005;SDS011;39919;38.160;-122.260;2023-02-05T02:33:40;2.13;;;0.10;;
54005;SDS011;39919;38.160;-122.260;2023-02-05T02:36:19;2.58;;;0.30;;
54005;SDS011;39919;38.160;-122.260;2023-02-05T02:38:56;1.73;;;0.10;;
54005;SDS011;39919;38.160;-122.260;2023-02-05T02:41:36;0.50;;;0.00;;
54005;SDS011;39919;38.160;-122.260;2023-02-05T02:44:13;1.75;;;0.10;;
54005;SDS011;39919;38.160;-122.260;2023-02-05T02:46:53;3.70;;;0.28;;
54005;SDS011;39919;38.160;-122.260;2023-02-05T02:49:29;1.00;;;0.10;;
54005;SDS011;39919;38.160;-122.260;2023-02-05T02:52:03;0.68;;;0.10;;
54005;SDS011;39919;38.160;-122.260;2023-02-05T02:54:38;2.50;;;0.10;;
54005;SDS011;39919;38.160;-122.260;2023-02-05T02:57:10;2.38;;;0.10;;
54005;SDS011;39919;38.160;-122.260;2023-02-05T02:59:47;4.82;;;0.13;;
54005;SDS011;39919;38.160;-122.260;2023-02-05T03:02:21;1.80;;;0.10;;
54005;SDS011;39919;38.160;-122.260;2023-02-05T03:04:54;1.67;;;0.10;;
54005;SDS011;39919;38.160;-122.260;2023-02-05T03:07:32;2.72;;;0.28;;
54005;SDS011;39919;38.160;-122.260;2023-02-05T03:10:07;2.97;;;0.20;;
54005;SDS011;39919;38.160;-122.260;2023-02-05T03:12:41;1.98;;;0.20;;
54005;SDS011;39919;38.160;-122.260;2023-02-05T03:15:12;1.08;;;0.17;;
54005;SDS011;39919;38.160;-122.260;2023-02-05T03:17:45;6.28;;;0.30;;
54005;SDS011;39919;38.160;-122.260;2023-02-05T03:20:15;6.95;;;0.43;;
54005;SDS011;39919;38.160;-122.260;2023-02-05T03:22:51;3.28;;;0.57;;
54005;SDS011;39919;38.160;-122.260;2023-02-05T03:25:27;2.17;;;0.20;;
54005;SDS011;39919;38.160;-122.260;2023-02-05T03:28:02;3.53;;;0.20;;
54005;SDS011;39919;38.160;-122.260;2023-02-05T03:30:45;8.10;;;0.43;;
54005;SDS011;39919;38.160;-122.260;2023-02-05T03:33:32;4.63;;;0.20;;
54005;SDS011;39919;38.160;-122.260;2023-02-05T03:36:15;4.18;;;0.45;;
54005;SDS011;39919;38.160;-122.260;2023-02-05T03:39:02;7.93;;;0.25;;
54005;SDS011;39919;38.160;-122.260;2023-02-05T03:41:42;1.52;;;0.10;;
54005;SDS011;39919;38.160;-122.260;2023-02-05T03:44:34;6.90;;;0.95;;
54005;SDS011;39919;38.160;-122.260;2023-02-05T03:47:29;5.80;;;0.63;;
54005;SDS011;39919;38.160;-122.260;2023-02-05T03:50:16;5.93;;;0.30;;
54005;SDS011;39919;38.160;-122.260;2023-02-05T03:52:54;5.55;;;0.30;;
54005;SDS011;39919;38.160;-122.260;2023-02-05T03:55:37;3.40;;;0.20;;
54005;SDS011;39919;38.160;-122.260;2023-02-05T03:58:20;3.42;;;0.38;;
54005;SDS011;39919;38.160;-122.260;2023-02-05T04:00:53;4.20;;;0.30;;
54005;SDS011;39919;38.160;-122.260;2023-02-05T04:03:29;4.50;;;0.20;;
54005;SDS011;39919;38.160;-122.260;2023-02-05T04:05:59;6.93;;;0.77;;
54005;SDS011;39919;38.160;-122.260;2023-02-05T04:08:28;1.85;;;0.20;;
54005;SDS011;39919;38.160;-122.260;2023-02-05T04:11:01;4.88;;;0.22;;
54005;SDS011;39919;38.160;-122.260;2023-02-05T04:13:30;3.70;;;0.82;;
54005;SDS011;39919;38.160;-122.260;2023-02-05T04:16:02;2.53;;;0.20;;
54005;SDS011;39919;38.160;-122.260;2023-02-05T04:18:33;2.90;;;0.40;;
54005;SDS011;39919;38.160;-122.260;2023-02-05T04:21:04;8.00;;;1.30;;
54005;SDS011;39919;38.160;-122.260;2023-02-05T04:23:36;11.77;;;1.35;;
54005;SDS011;39919;38.160;-122.260;2023-02-05T04:26:05;10.35;;;1.10;;
54005;SDS011;39919;38.160;-122.260;2023-02-05T04:28:39;13.02;;;1.75;;
54005;SDS011;39919;38.160;-122.260;2023-02-05T04:31:08;19.70;;;1.88;;
54005;SDS011;39919;38.160;-122.260;2023-02-05T04:33:45;11.15;;;1.02;;
54005;SDS011;39919;38.160;-122.260;2023-02-05T04:36:17;17.52;;;1.40;;
54005;SDS011;39919;38.160;-122.260;2023-02-05T04:38:47;22.25;;;2.08;;
54005;SDS011;39919;38.160;-122.260;2023-02-05T04:41:22;19.63;;;1.58;;
54005;SDS011;39919;38.160;-122.260;2023-02-05T04:43:53;16.30;;;1.92;;
54005;SDS011;39919;38.160;-122.260;2023-02-05T04:46:25;20.95;;;1.95;;
54005;SDS011;39919;38.160;-122.260;2023-02-05T04:48:56;24.80;;;2.63;;
54005;SDS011;39919;38.160;-122.260;2023-02-05T04:51:31;25.48;;;1.80;;
54005;SDS011;39919;38.160;-122.260;2023-02-05T04:54:02;26.23;;;2.42;;
54005;SDS011;39919;38.160;-122.260;2023-02-05T04:56:32;20.73;;;1.67;;
54005;SDS011;39919;38.160;-122.260;2023-02-05T04:59:01;19.17;;;1.98;;
54005;SDS011;39919;38.160;-122.260;2023-02-05T05:01:31;29.23;;;1.92;;
54005;SDS011;39919;38.160;-122.260;2023-02-05T05:04:04;30.10;;;2.92;;
54005;SDS011;39919;38.160;-122.260;2023-02-05T05:06:36;19.45;;;1.60;;
54005;SDS011;39919;38.160;-122.260;2023-02-05T05:09:08;19.40;;;2.30;;
54005;SDS011;39919;38.160;-122.260;2023-02-05T05:11:40;20.50;;;3.58;;
54005;SDS011;39919;38.160;-122.260;2023-02-05T05:14:12;15.35;;;2.25;;
54005;SDS011;39919;38.160;-122.260;2023-02-05T05:16:41;25.10;;;2.20;;
54005;SDS011;39919;38.160;-122.260;2023-02-05T05:19:15;25.45;;;2.13;;
54005;SDS011;39919;38.160;-122.260;2023-02-05T05:21:44;24.77;;;2.03;;
54005;SDS011;39919;38.160;-122.260;2023-02-05T05:24:18;20.02;;;2.47;;
54005;SDS011;39919;38.160;-122.260;2023-02-05T05:26:53;23.33;;;3.10;;
54005;SDS011;39919;38.160;-122.260;2023-02-05T05:29:22;25.45;;;3.22;;
54005;SDS011;39919;38.160;-122.260;2023-02-05T05:31:53;20.08;;;2.60;;
54005;SDS011;39919;38.160;-122.260;2023-02-05T05:34:24;21.88;;;1.77;;
54005;SDS011;39919;38.160;-122.260;2023-02-05T05:36:58;17.45;;;2.90;;
54005;SDS011;39919;38.160;-122.260;2023-02-05T05:39:33;11.45;;;1.45;;
54005;SDS011;39919;38.160;-122.260;2023-02-05T05:42:19;12.13;;;0.93;;
54005;SDS011;39919;38.160;-122.260;2023-02-05T05:45:11;15.05;;;1.55;;
54005;SDS011;39919;38.160;-122.260;2023-02-05T05:47:45;24.35;;;1.92;;
54005;SDS011;39919;38.160;-122.260;2023-02-05T05:50:24;14.02;;;1.52;;
54005;SDS011;39919;38.160;-122.260;2023-02-05T05:52:59;8.18;;;1.05;;
54005;SDS011;39919;38.160;-122.260;2023-02-05T05:55:28;16.10;;;0.95;;
54005;SDS011;39919;38.160;-122.260;2023-02-05T05:58:03;8.00;;;0.95;;
54005;SDS011;39919;38.160;-122.260;2023-02-05T06:00:41;13.35;;;0.95;;
54005;SDS011;39919;38.160;-122.260;2023-02-05T06:03:16;20.30;;;2.05;;
54005;SDS011;39919;38.160;-122.260;2023-02-05T06:05:51;12.43;;;0.88;;
54005;SDS011;39919;38.160;-122.260;2023-02-05T06:08:20;15.13;;;0.88;;
54005;SDS011;39919;38.160;-122.260;2023-02-05T06:10:57;15.00;;;1.45;;
54005;SDS011;39919;38.160;-122.260;2023-02-05T06:13:26;19.88;;;1.30;;
54005;SDS011;39919;38.160;-122.260;2023-02-05T06:15:56;9.63;;;2.15;;
54005;SDS011;39919;38.160;-122.260;2023-02-05T06:18:28;12.20;;;1.70;;
54005;SDS011;39919;38.160;-122.260;2023-02-05T06:20:59;9.10;;;0.75;;
54005;SDS011;39919;38.160;-122.260;2023-02-05T06:23:32;10.52;;;1.35;;
54005;SDS011;39919;38.160;-122.260;2023-02-05T06:26:06;13.13;;;0.70;;
54005;SDS011;39919;38.160;-122.260;2023-02-05T06:28:36;14.05;;;1.20;;
54005;SDS011;39919;38.160;-122.260;2023-02-05T06:31:05;11.48;;;1.50;;
54005;SDS011;39919;38.160;-122.260;2023-02-05T06:33:37;13.10;;;1.63;;
54005;SDS011;39919;38.160;-122.260;2023-02-05T06:36:08;12.90;;;0.85;;
54005;SDS011;39919;38.160;-122.260;2023-02-05T06:38:38;10.07;;;1.20;;
54005;SDS011;39919;38.160;-122.260;2023-02-05T06:41:09;11.48;;;0.88;;
54005;SDS011;39919;38.160;-122.260;2023-02-05T06:43:46;10.00;;;0.68;;
54005;SDS011;39919;38.160;-122.260;2023-02-05T06:46:19;17.90;;;0.90;;
54005;SDS011;39919;38.160;-122.260;2023-02-05T06:48:53;9.63;;;0.43;;
54005;SDS011;39919;38.160;-122.260;2023-02-05T06:51:26;14.60;;;1.25;;
54005;SDS011;39919;38.160;-122.260;2023-02-05T06:53:56;12.30;;;1.00;;
54005;SDS011;39919;38.160;-122.260;2023-02-05T06:56:29;6.95;;;1.33;;
54005;SDS011;39919;38.160;-122.260;2023-02-05T06:58:58;17.35;;;1.15;;
54005;SDS011;39919;38.160;-122.260;2023-02-05T07:01:28;16.77;;;1.50;;
54005;SDS011;39919;38.160;-122.260;2023-02-05T07:03:57;16.30;;;0.93;;
54005;SDS011;39919;38.160;-122.260;2023-02-05T07:06:28;19.15;;;1.20;;
54005;SDS011;39919;38.160;-122.260;2023-02-05T07:09:00;8.30;;;0.73;;
54005;SDS011;39919;38.160;-122.260;2023-02-05T07:11:31;9.43;;;0.65;;
54005;SDS011;39919;38.160;-122.260;2023-02-05T07:14:03;12.73;;;1.55;;
54005;SDS011;39919;38.160;-122.260;2023-02-05T07:16:36;12.27;;;0.88;;
54005;SDS011;39919;38.160;-122.260;2023-02-05T07:19:17;17.05;;;1.20;;
54005;SDS011;39919;38.160;-122.260;2023-02-05T07:21:52;15.95;;;1.10;;
54005;SDS011;39919;38.160;-122.260;2023-02-05T07:24:21;11.00;;;0.88;;
54005;SDS011;39919;38.160;-122.260;2023-02-05T07:26:54;18.55;;;1.25;;
54005;SDS011;39919;38.160;-122.260;2023-02-05T07:29:23;11.15;;;1.50;;
54005;SDS011;39919;38.160;-122.260;2023-02-05T07:31:53;10.40;;;1.02;;
54005;SDS011;39919;38.160;-122.260;2023-02-05T07:34:25;14.00;;;2.00;;
54005;SDS011;39919;38.160;-122.260;2023-02-05T07:36:56;12.70;;;1.17;;
54005;SDS011;39919;38.160;-122.260;2023-02-05T07:39:36;12.63;;;1.08;;
54005;SDS011;39919;38.160;-122.260;2023-02-05T07:42:08;13.45;;;1.35;;
54005;SDS011;39919;38.160;-122.260;2023-02-05T07:44:56;18.33;;;1.85;;
54005;SDS011;39919;38.160;-122.260;2023-02-05T07:47:28;11.18;;;0.80;;
54005;SDS011;39919;38.160;-122.260;2023-02-05T07:49:58;17.45;;;1.65;;
54005;SDS011;39919;38.160;-122.260;2023-02-05T07:52:29;9.55;;;0.85;;
54005;SDS011;39919;38.160;-122.260;2023-02-05T07:54:59;11.30;;;0.80;;
54005;SDS011;39919;38.160;-122.260;2023-02-05T07:57:29;11.43;;;1.63;;
54005;SDS011;39919;38.160;-122.260;2023-02-05T08:00:02;11.32;;;1.23;;
54005;SDS011;39919;38.160;-122.260;2023-02-05T08:02:32;15.07;;;0.90;;
54005;SDS011;39919;38.160;-122.260;2023-02-05T08:05:04;16.45;;;1.60;;
54005;SDS011;39919;38.160;-122.260;2023-02-05T08:07:42;14.23;;;0.82;;
54005;SDS011;39919;38.160;-122.260;2023-02-05T08:10:29;15.25;;;2.63;;
54005;SDS011;39919;38.160;-122.260;2023-02-05T08:13:03;16.23;;;1.42;;
54005;SDS011;39919;38.160;-122.260;2023-02-05T08:15:37;13.98;;;1.23;;
54005;SDS011;39919;38.160;-122.260;2023-02-05T08:18:07;11.20;;;0.82;;
54005;SDS011;39919;38.160;-122.260;2023-02-05T08:20:44;9.20;;;0.75;;
54005;SDS011;39919;38.160;-122.260;2023-02-05T08:23:23;16.65;;;2.10;;
54005;SDS011;39919;38.160;-122.260;2023-02-05T08:25:52;16.75;;;1.70;;
54005;SDS011;39919;38.160;-122.260;2023-02-05T08:28:26;14.48;;;1.63;;
54005;SDS011;39919;38.160;-122.260;2023-02-05T08:31:00;13.25;;;1.80;;
54005;SDS011;39919;38.160;-122.260;2023-02-05T08:33:40;12.05;;;1.83;;
54005;SDS011;39919;38.160;-122.260;2023-02-05T08:36:09;15.85;;;2.15;;
54005;SDS011;39919;38.160;-122.260;2023-02-05T08:38:38;10.98;;;1.08;;
54005;SDS011;39919;38.160;-122.260;2023-02-05T08:41:10;12.80;;;1.52;;
54005;SDS011;39919;38.160;-122.260;2023-02-05T08:43:44;16.38;;;1.13;;
54005;SDS011;39919;38.160;-122.260;2023-02-05T08:46:19;20.98;;;1.90;;
54005;SDS011;39919;38.160;-122.260;2023-02-05T08:48:53;17.92;;;1.77;;
54005;SDS011;39919;38.160;-122.260;2023-02-05T08:51:22;18.13;;;1.77;;
54005;SDS011;39919;38.160;-122.260;2023-02-05T08:53:53;17.42;;;1.92;;
54005;SDS011;39919;38.160;-122.260;2023-02-05T08:56:27;11.93;;;1.13;;
54005;SDS011;39919;38.160;-122.260;2023-02-05T08:58:59;12.45;;;0.93;;
54005;SDS011;39919;38.160;-122.260;2023-02-05T09:01:30;14.27;;;0.60;;
54005;SDS011;39919;38.160;-122.260;2023-02-05T09:04:12;17.63;;;2.15;;
54005;SDS011;39919;38.160;-122.260;2023-02-05T09:06:42;12.65;;;0.95;;
54005;SDS011;39919;38.160;-122.260;2023-02-05T09:09:14;17.73;;;1.65;;
54005;SDS011;39919;38.160;-122.260;2023-02-05T09:11:44;19.08;;;1.77;;
54005;SDS011;39919;38.160;-122.260;2023-02-05T09:14:23;18.50;;;2.55;;
54005;SDS011;39919;38.160;-122.260;2023-02-05T09:17:08;14.50;;;1.52;;
54005;SDS011;39919;38.160;-122.260;2023-02-05T09:19:42;14.93;;;1.63;;
54005;SDS011;39919;38.160;-122.260;2023-02-05T09:22:14;17.15;;;2.00;;
54005;SDS011;39919;38.160;-122.260;2023-02-05T09:24:43;12.60;;;1.67;;
54005;SDS011;39919;38.160;-122.260;2023-02-05T09:27:12;14.43;;;1.30;;
54005;SDS011;39919;38.160;-122.260;2023-02-05T09:29:41;30.30;;;2.03;;
54005;SDS011;39919;38.160;-122.260;2023-02-05T09:32:12;15.32;;;1.40;;
54005;SDS011;39919;38.160;-122.260;2023-02-05T09:34:41;17.85;;;1.90;;
54005;SDS011;39919;38.160;-122.260;2023-02-05T09:37:14;14.05;;;1.83;;
54005;SDS011;39919;38.160;-122.260;2023-02-05T09:39:43;25.27;;;2.05;;
54005;SDS011;39919;38.160;-122.260;2023-02-05T09:42:23;17.23;;;1.50;;
54005;SDS011;39919;38.160;-122.260;2023-02-05T09:45:02;17.08;;;2.40;;
54005;SDS011;39919;38.160;-122.260;2023-02-05T09:47:48;15.93;;;1.83;;
54005;SDS011;39919;38.160;-122.260;2023-02-05T09:50:26;21.38;;;1.70;;
54005;SDS011;39919;38.160;-122.260;2023-02-05T09:52:56;19.50;;;1.60;;
54005;SDS011;39919;38.160;-122.260;2023-02-05T09:55:36;16.27;;;1.52;;
54005;SDS011;39919;38.160;-122.260;2023-02-05T09:58:10;15.57;;;1.58;;
54005;SDS011;39919;38.160;-122.260;2023-02-05T10:00:44;26.58;;;1.45;;
54005;SDS011;39919;38.160;-122.260;2023-02-05T10:03:20;17.48;;;1.00;;
54005;SDS011;39919;38.160;-122.260;2023-02-05T10:05:59;20.65;;;0.90;;
54005;SDS011;39919;38.160;-122.260;2023-02-05T10:08:43;9.98;;;0.55;;
54005;SDS011;39919;38.160;-122.260;2023-02-05T10:11:22;11.63;;;0.95;;
54005;SDS011;39919;38.160;-122.260;2023-02-05T10:13:59;10.20;;;0.88;;
54005;SDS011;39919;38.160;-122.260;2023-02-05T10:19:48;17.17;;;0.80;;
54005;SDS011;39919;38.160;-122.260;2023-02-05T10:22:32;11.35;;;1.60;;
54005;SDS011;39919;38.160;-122.260;2023-02-05T10:25:26;19.52;;;1.38;;
54005;SDS011;39919;38.160;-122.260;2023-02-05T10:28:17;12.20;;;0.85;;
54005;SDS011;39919;38.160;-122.260;2023-02-05T10:31:21;15.93;;;1.40;;
54005;SDS011;39919;38.160;-122.260;2023-02-05T10:34:06;17.00;;;1.02;;
54005;SDS011;39919;38.160;-122.260;2023-02-05T10:36:46;11.93;;;0.98;;
54005;SDS011;39919;38.160;-122.260;2023-02-05T10:41:56;14.57;;;1.50;;
54005;SDS011;39919;38.160;-122.260;2023-02-05T10:44:29;13.52;;;0.88;;
54005;SDS011;39919;38.160;-122.260;2023-02-05T10:47:02;16.85;;;1.35;;
54005;SDS011;39919;38.160;-122.260;2023-02-05T10:49:41;6.70;;;0.38;;
54005;SDS011;39919;38.160;-122.260;2023-02-05T10:52:18;16.30;;;0.70;;
54005;SDS011;39919;38.160;-122.260;2023-02-05T10:54:51;13.48;;;0.77;;
54005;SDS011;39919;38.160;-122.260;2023-02-05T10:57:20;11.13;;;0.60;;
54005;SDS011;39919;38.160;-122.260;2023-02-05T10:59:53;14.63;;;0.55;;
54005;SDS011;39919;38.160;-122.260;2023-02-05T11:02:25;14.25;;;1.00;;
54005;SDS011;39919;38.160;-122.260;2023-02-05T11:05:00;21.50;;;1.35;;
54005;SDS011;39919;38.160;-122.260;2023-02-05T11:07:35;17.58;;;0.95;;
54005;SDS011;39919;38.160;-122.260;2023-02-05T11:10:14;15.77;;;0.85;;
54005;SDS011;39919;38.160;-122.260;2023-02-05T11:12:44;11.27;;;0.65;;
54005;SDS011;39919;38.160;-122.260;2023-02-05T11:15:21;10.35;;;1.00;;
54005;SDS011;39919;38.160;-122.260;2023-02-05T11:17:55;15.32;;;0.70;;
54005;SDS011;39919;38.160;-122.260;2023-02-05T11:20:27;10.48;;;0.68;;
54005;SDS011;39919;38.160;-122.260;2023-02-05T11:23:15;15.00;;;1.75;;
54005;SDS011;39919;38.160;-122.260;2023-02-05T11:25:48;11.55;;;1.00;;
54005;SDS011;39919;38.160;-122.260;2023-02-05T11:28:23;9.90;;;1.35;;
54005;SDS011;39919;38.160;-122.260;2023-02-05T11:30:55;17.42;;;1.63;;
54005;SDS011;39919;38.160;-122.260;2023-02-05T11:33:44;10.98;;;0.68;;
54005;SDS011;39919;38.160;-122.260;2023-02-05T11:36:15;9.40;;;1.30;;
54005;SDS011;39919;38.160;-122.260;2023-02-05T11:38:51;13.15;;;1.63;;
54005;SDS011;39919;38.160;-122.260;2023-02-05T11:41:28;11.65;;;0.93;;
54005;SDS011;39919;38.160;-122.260;2023-02-05T11:44:15;16.08;;;2.05;;
54005;SDS011;39919;38.160;-122.260;2023-02-05T11:46:51;13.35;;;2.05;;
54005;SDS011;39919;38.160;-122.260;2023-02-05T11:49:22;21.30;;;3.38;;
54005;SDS011;39919;38.160;-122.260;2023-02-05T11:51:57;13.32;;;1.65;;
54005;SDS011;39919;38.160;-122.260;2023-02-05T11:54:36;13.55;;;1.98;;
54005;SDS011;39919;38.160;-122.260;2023-02-05T11:57:07;17.38;;;1.88;;
54005;SDS011;39919;38.160;-122.260;2023-02-05T12:00:02;19.60;;;1.63;;
54005;SDS011;39919;38.160;-122.260;2023-02-05T12:02:49;19.23;;;1.17;;
54005;SDS011;39919;38.160;-122.260;2023-02-05T12:05:30;17.10;;;1.20;;
54005;SDS011;39919;38.160;-122.260;2023-02-05T12:08:09;7.43;;;0.65;;
54005;SDS011;39919;38.160;-122.260;2023-02-05T12:10:46;16.23;;;1.40;;
54005;SDS011;39919;38.160;-122.260;2023-02-05T12:13:36;17.70;;;0.70;;
54005;SDS011;39919;38.160;-122.260;2023-02-05T12:16:31;5.57;;;0.50;;
54005;SDS011;39919;38.160;-122.260;2023-02-05T12:19:19;10.65;;;0.55;;
54005;SDS011;39919;38.160;-122.260;2023-02-05T12:21:59;13.75;;;1.08;;
54005;SDS011;39919;38.160;-122.260;2023-02-05T12:24:43;15.43;;;1.60;;
54005;SDS011;39919;38.160;-122.260;2023-02-05T12:27:32;13.85;;;0.88;;
54005;SDS011;39919;38.160;-122.260;2023-02-05T12:30:20;17.70;;;1.85;;
54005;SDS011;39919;38.160;-122.260;2023-02-05T12:33:07;9.90;;;0.95;;
54005;SDS011;39919;38.160;-122.260;2023-02-05T12:36:00;17.83;;;1.67;;
54005;SDS011;39919;38.160;-122.260;2023-02-05T12:38:42;10.18;;;0.70;;
54005;SDS011;39919;38.160;-122.260;2023-02-05T12:41:25;10.02;;;0.88;;
54005;SDS011;39919;38.160;-122.260;2023-02-05T12:44:14;8.73;;;0.60;;
54005;SDS011;39919;38.160;-122.260;2023-02-05T12:46:55;4.22;;;0.50;;
54005;SDS011;39919;38.160;-122.260;2023-02-05T12:49:36;9.38;;;0.95;;
54005;SDS011;39919;38.160;-122.260;2023-02-05T12:52:33;4.50;;;0.40;;
54005;SDS011;39919;38.160;-122.260;2023-02-05T12:55:27;5.00;;;1.00;;
54005;SDS011;39919;38.160;-122.260;2023-02-05T12:58:12;2.08;;;0.63;;
54005;SDS011;39919;38.160;-122.260;2023-02-05T13:00:53;2.42;;;0.20;;
54005;SDS011;39919;38.160;-122.260;2023-02-05T13:03:33;4.97;;;0.47;;
54005;SDS011;39919;38.160;-122.260;2023-02-05T13:06:07;6.20;;;0.73;;
54005;SDS011;39919;38.160;-122.260;2023-02-05T13:08:41;4.78;;;1.17;;
54005;SDS011;39919;38.160;-122.260;2023-02-05T13:11:17;5.78;;;0.30;;
54005;SDS011;39919;38.160;-122.260;2023-02-05T13:13:53;8.82;;;0.35;;
54005;SDS011;39919;38.160;-122.260;2023-02-05T13:16:43;4.82;;;0.30;;
54005;SDS011;39919;38.160;-122.260;2023-02-05T13:19:21;8.90;;;0.77;;
54005;SDS011;39919;38.160;-122.260;2023-02-05T13:21:56;5.38;;;0.20;;
54005;SDS011;39919;38.160;-122.260;2023-02-05T13:24:45;4.60;;;0.30;;
54005;SDS011;39919;38.160;-122.260;2023-02-05T13:27:35;7.28;;;0.30;;
54005;SDS011;39919;38.160;-122.260;2023-02-05T13:30:27;8.68;;;1.45;;
54005;SDS011;39919;38.160;-122.260;2023-02-05T13:33:08;6.43;;;0.40;;
54005;SDS011;39919;38.160;-122.260;2023-02-05T13:35:40;6.65;;;0.40;;
54005;SDS011;39919;38.160;-122.260;2023-02-05T13:38:29;5.30;;;0.30;;
54005;SDS011;39919;38.160;-122.260;2023-02-05T13:41:17;8.13;;;0.63;;
54005;SDS011;39919;38.160;-122.260;2023-02-05T13:44:11;9.45;;;0.60;;
54005;SDS011;39919;38.160;-122.260;2023-02-05T13:47:05;4.05;;;0.60;;
54005;SDS011;39919;38.160;-122.260;2023-02-05T13:49:55;14.73;;;0.75;;
54005;SDS011;39919;38.160;-122.260;2023-02-05T13:58:58;9.20;;;1.27;;
54005;SDS011;39919;38.160;-122.260;2023-02-05T14:01:37;13.60;;;0.95;;
54005;SDS011;39919;38.160;-122.260;2023-02-05T14:04:16;11.57;;;1.40;;
54005;SDS011;39919;38.160;-122.260;2023-02-05T14:06:57;22.58;;;3.05;;
54005;SDS011;39919;38.160;-122.260;2023-02-05T14:09:32;17.88;;;1.70;;
54005;SDS011;39919;38.160;-122.260;2023-02-05T14:12:20;20.48;;;1.77;;
54005;SDS011;39919;38.160;-122.260;2023-02-05T14:17:56;13.48;;;1.67;;
54005;SDS011;39919;38.160;-122.260;2023-02-05T14:20:33;15.18;;;1.10;;
54005;SDS011;39919;38.160;-122.260;2023-02-05T14:23:19;15.65;;;1.00;;
54005;SDS011;39919;38.160;-122.260;2023-02-05T14:32:06;23.90;;;2.15;;
54005;SDS011;39919;38.160;-122.260;2023-02-05T14:34:59;21.40;;;1.50;;
54005;SDS011;39919;38.160;-122.260;2023-02-05T14:37:35;16.40;;;1.42;;
54005;SDS011;39919;38.160;-122.260;2023-02-05T14:43:10;21.27;;;2.40;;
54005;SDS011;39919;38.160;-122.260;2023-02-05T14:45:46;17.05;;;1.30;;
54005;SDS011;39919;38.160;-122.260;2023-02-05T14:48:20;18.67;;;1.85;;
54005;SDS011;39919;38.160;-122.260;2023-02-05T14:51:02;15.75;;;1.70;;
54005;SDS011;39919;38.160;-122.260;2023-02-05T14:53:37;13.95;;;0.95;;
54005;SDS011;39919;38.160;-122.260;2023-02-05T14:56:20;14.15;;;0.70;;
54005;SDS011;39919;38.160;-122.260;2023-02-05T14:58:59;13.43;;;1.58;;
54005;SDS011;39919;38.160;-122.260;2023-02-05T15:07:14;22.83;;;1.10;;
54005;SDS011;39919;38.160;-122.260;2023-02-05T15:09:58;10.93;;;1.30;;
54005;SDS011;39919;38.160;-122.260;2023-02-05T15:12:39;11.27;;;1.35;;
54005;SDS011;39919;38.160;-122.260;2023-02-05T15:15:25;17.52;;;1.05;;
54005;SDS011;39919;38.160;-122.260;2023-02-05T15:18:08;12.05;;;0.93;;
54005;SDS011;39919;38.160;-122.260;2023-02-05T15:20:45;15.32;;;1.50;;
54005;SDS011;39919;38.160;-122.260;2023-02-05T15:23:31;16.55;;;1.42;;
54005;SDS011;39919;38.160;-122.260;2023-02-05T15:26:03;15.82;;;1.60;;